New Braunfels, TX (78132)

07:53 AM CST die 11o December, anno 2016 (GMT -0600)
River Road nr 1st Crossing | | Change Station

Elev 672 ft 29.75 °N, 98.15 °W | Updated 3 minutes ago

Caligo
Caligo
53.7 °F
Feels Like 53.7 °F
N
1.0
Ventus Variabilis Ventus from Inter Austrum et Zephyrum
Gusts 3.0 mph

Hodie
High -- | Low -- °F
--% Chance of Precip.
Yesterday
High -- | Low -- °F
Precip. -- in
Pressio 30.03 in
Visibilitas 0.2 milia passuum
Clouds
Frigus in quo Ros apparet 54 °F
Umor 100%
Rainfall 0.02 in
Snow Depth Not available.
7:18 AM 5:34 PM
Waxing Gibbous, 91% visible
METAR KBAZ 111251Z 23005KT 1/4SM FG VV003 12/11 A3003 RMK AO2 RAE1154 SLP167 P0001 T01170111
Pressio 30.03 in
Visibilitas 0.2 milia passuum
Clouds
Frigus in quo Ros apparet 54 °F
Umor 100%
Rainfall 0.02 in
Snow Depth Not available.
7:18 AM 5:34 PM
Waxing Gibbous, 91% visible
METAR KBAZ 111251Z 23005KT 1/4SM FG VV003 12/11 A3003 RMK AO2 RAE1154 SLP167 P0001 T01170111

10-Day Weather Forecast

Almanac

Astronomy

Dec. 11, 2016 Rise Set
Actual Time
Civil Twilight
Nautical Twilight
Astronomical Twilight
Moon
Length Of Visible Light
Length of Day
Tomorrow will be .
, % of the Moon is Illuminated

Today's Extremes

State Highs State Lows

Community

WunderPhotos

Upload Photos

1,956,708 photos uploaded!

WunderBlog® & News

Nearby

Air Quality

  Air Quality AQ Index Pollutant
Not available.

Snow Depth

Station Depth Elevation

Earthquake Activity

City Distance Mag. Time & Date
Minimum magnitude displayed is 2.5.

Coastal Water Temperatures

Locus Calor

Stations

Nearby Weather Stations

Station Location Temp Frigus Venti Frigus in quo Ros apparet Umor Ventus Precip. Elev Renovata Type
                   

Watches & Warnings

There are currently no watches in effect.